Time;durP1;ratioP1;P1;durP2;ratioP2;P2;SDS_P1;SDS_P2;PMS_P1;PMS_P2;Temp;Humidity;BMP_temperature;BMP_pressure;BME280_temperature;BME280_humidity;BME280_pressure;Samples;Min_cycle;Max_cycle;Signal;HPM_P1;HPM_P2
2022/10/06 00:00:53;;;;;;;0.90;0.80;;;24.80;69.50;;;;;;5014520;28;20440;-88
2022/10/06 00:03:22;;;;;;;1.00;0.90;;;24.80;69.50;;;;;;5014391;28;20483;-93
2022/10/06 00:05:49;;;;;;;0.90;0.80;;;24.80;69.50;;;;;;5014522;28;20479;-88
2022/10/06 00:08:16;;;;;;;0.83;0.80;;;24.80;69.50;;;;;;5014402;28;20815;-87
2022/10/06 00:10:43;;;;;;;0.80;0.70;;;24.80;69.50;;;;;;5014205;28;20448;-87
2022/10/06 00:13:11;;;;;;;0.80;0.70;;;24.80;69.40;;;;;;5014064;28;20487;-88
2022/10/06 00:15:38;;;;;;;1.00;0.80;;;24.80;69.40;;;;;;5014561;28;20453;-88
2022/10/06 00:18:05;;;;;;;0.90;0.70;;;24.80;69.40;;;;;;5014137;28;20455;-88
2022/10/06 00:20:32;;;;;;;1.03;0.93;;;24.80;69.40;;;;;;5015191;28;20463;-88
2022/10/06 00:22:59;;;;;;;0.90;0.77;;;24.80;69.40;;;;;;5014163;28;20921;-88
2022/10/06 00:25:27;;;;;;;0.77;0.73;;;24.80;69.40;;;;;;5014267;28;20454;-87
2022/10/06 00:27:54;;;;;;;1.43;0.70;;;24.80;69.30;;;;;;5014001;28;20456;-94
2022/10/06 00:30:24;;;;;;;0.80;0.67;;;24.80;69.30;;;;;;5014255;28;20449;-88
2022/10/06 00:32:53;;;;;;;0.80;0.70;;;24.80;69.30;;;;;;5014058;28;20447;-88
2022/10/06 00:35:20;;;;;;;0.80;0.70;;;24.80;69.30;;;;;;5013989;28;20544;-87
2022/10/06 00:37:47;;;;;;;1.07;0.90;;;24.80;69.30;;;;;;5014022;28;20457;-93
2022/10/06 00:40:13;;;;;;;0.90;0.80;;;24.80;69.30;;;;;;5014005;28;20515;-87
2022/10/06 00:42:52;;;;;;;0.80;0.60;;;24.80;69.30;;;;;;5014193;28;20444;-88
2022/10/06 00:45:28;;;;;;;1.00;0.80;;;24.80;69.20;;;;;;5014550;28;20457;-87
2022/10/06 00:47:57;;;;;;;0.80;0.63;;;24.80;69.20;;;;;;5013907;28;20453;-89
2022/10/06 00:50:24;;;;;;;0.80;0.70;;;24.80;69.30;;;;;;5013965;28;20447;-87
2022/10/06 00:52:51;;;;;;;0.80;0.70;;;24.90;69.40;;;;;;5013907;28;20536;-95
2022/10/06 00:55:19;;;;;;;0.80;0.60;;;24.80;69.20;;;;;;5013869;28;20470;-88
2022/10/06 00:57:47;;;;;;;0.80;0.70;;;24.80;69.20;;;;;;5013934;28;20466;-87
2022/10/06 01:00:15;;;;;;;0.97;0.70;;;24.80;69.20;;;;;;5013744;28;20494;-94
2022/10/06 01:02:48;;;;;;;0.80;0.60;;;24.80;69.10;;;;;;5013618;28;20832;-95
2022/10/06 01:05:27;;;;;;;0.80;0.63;;;24.80;69.00;;;;;;5013916;28;20467;-88
2022/10/06 01:07:54;;;;;;;0.80;0.70;;;24.80;69.10;;;;;;5015763;28;20524;-92
2022/10/06 01:10:21;;;;;;;1.00;0.80;;;24.80;69.10;;;;;;5017720;28;20467;-94
2022/10/06 01:12:48;;;;;;;0.80;0.70;;;24.80;69.10;;;;;;5017129;28;20571;-87
2022/10/06 01:15:15;;;;;;;0.80;0.60;;;24.80;69.10;;;;;;5017430;28;20443;-88
2022/10/06 01:17:49;;;;;;;0.80;0.70;;;24.80;69.10;;;;;;5017523;28;20434;-88
2022/10/06 01:20:19;;;;;;;0.70;0.60;;;24.80;69.10;;;;;;5017413;28;20535;-88
2022/10/06 01:22:50;;;;;;;0.80;0.70;;;24.80;69.10;;;;;;5017400;28;20444;-87
2022/10/06 01:25:18;;;;;;;1.00;0.70;;;24.80;69.10;;;;;;5017511;28;20485;-88
2022/10/06 01:27:50;;;;;;;0.80;0.73;;;24.80;69.10;;;;;;5017030;28;20459;-93
2022/10/06 01:30:21;;;;;;;0.80;0.70;;;24.80;69.00;;;;;;5017312;28;20963;-95
2022/10/06 01:32:48;;;;;;;0.80;0.70;;;24.80;69.00;;;;;;5017276;28;20456;-91
2022/10/06 01:35:16;;;;;;;0.93;0.77;;;24.80;69.00;;;;;;5017329;28;20490;-92
2022/10/06 01:37:42;;;;;;;0.80;0.70;;;24.80;69.00;;;;;;5016896;28;20445;-93
2022/10/06 01:40:11;;;;;;;0.90;0.80;;;24.80;69.00;;;;;;5016990;28;20513;-94
2022/10/06 01:42:38;;;;;;;0.87;0.73;;;24.80;69.00;;;;;;5016963;28;20441;-87
2022/10/06 01:45:06;;;;;;;0.80;0.63;;;24.70;68.90;;;;;;5016889;28;20442;-94
2022/10/06 01:47:33;;;;;;;1.10;0.90;;;24.80;69.00;;;;;;5016910;28;20456;-88
2022/10/06 01:50:00;;;;;;;0.80;0.67;;;24.80;69.90;;;;;;5016898;28;20824;-95
2022/10/06 01:52:27;;;;;;;0.87;0.80;;;24.80;69.00;;;;;;5016851;28;20449;-87
2022/10/06 01:54:54;;;;;;;0.70;0.60;;;24.80;69.00;;;;;;5016568;28;20457;-95
2022/10/06 01:57:22;;;;;;;1.17;0.70;;;24.80;69.00;;;;;;5016599;28;20515;-87
2022/10/06 01:59:49;;;;;;;0.87;0.70;;;24.80;69.00;;;;;;5016571;28;20483;-88
2022/10/06 02:02:16;;;;;;;0.80;0.80;;;24.80;69.00;;;;;;5017004;28;20536;-87
2022/10/06 02:04:43;;;;;;;0.90;0.73;;;24.90;69.10;;;;;;5016292;28;20976;-89
2022/10/06 02:07:09;;;;;;;0.90;0.73;;;24.80;68.90;;;;;;5016500;28;20492;-88
2022/10/06 02:09:36;;;;;;;0.87;0.80;;;24.70;68.80;;;;;;5016740;28;20532;-87
2022/10/06 02:12:03;;;;;;;0.80;0.70;;;24.90;69.10;;;;;;5016455;28;20476;-87
2022/10/06 02:14:33;;;;;;;0.80;0.70;;;24.70;68.80;;;;;;5016402;28;20447;-87
2022/10/06 02:17:00;;;;;;;1.77;0.70;;;24.70;68.80;;;;;;5016481;28;20857;-88
2022/10/06 02:19:27;;;;;;;0.93;0.83;;;24.80;68.90;;;;;;5015028;28;20507;-93
2022/10/06 02:21:54;;;;;;;0.87;0.70;;;24.70;68.70;;;;;;5016088;28;20449;-88
2022/10/06 02:24:21;;;;;;;0.70;0.60;;;24.70;68.80;;;;;;5016457;28;20429;-94
2022/10/06 02:26:48;;;;;;;0.80;0.63;;;24.70;68.80;;;;;;5016130;28;21063;-87
2022/10/06 02:29:15;;;;;;;0.80;0.70;;;24.70;68.70;;;;;;5016298;28;20448;-87
2022/10/06 02:31:43;;;;;;;0.80;0.70;;;24.70;68.70;;;;;;5016077;28;20445;-95
2022/10/06 02:34:10;;;;;;;0.80;0.60;;;24.70;68.70;;;;;;5016147;28;20436;-94
2022/10/06 02:36:37;;;;;;;1.30;0.93;;;24.70;68.70;;;;;;5016119;28;20455;-87
2022/10/06 02:39:04;;;;;;;0.80;0.70;;;24.70;69.50;;;;;;5015968;28;20571;-87
2022/10/06 02:41:31;;;;;;;0.80;0.57;;;24.70;68.70;;;;;;5016484;28;20449;-88
2022/10/06 02:43:58;;;;;;;0.80;0.70;;;24.70;68.70;;;;;;5016270;28;20442;-94
2022/10/06 02:46:25;;;;;;;0.80;0.60;;;24.70;68.70;;;;;;5016121;28;20449;-94
2022/10/06 02:48:53;;;;;;;0.90;0.80;;;24.70;68.70;;;;;;5016163;28;20444;-90
2022/10/06 02:51:21;;;;;;;1.00;0.70;;;24.70;68.70;;;;;;5015747;28;20947;-87
2022/10/06 02:53:49;;;;;;;1.00;0.90;;;24.70;68.70;;;;;;5015439;28;20440;-94
2022/10/06 02:56:17;;;;;;;0.70;0.70;;;24.70;68.70;;;;;;5015759;28;20454;-88
2022/10/06 02:58:46;;;;;;;1.00;0.73;;;24.80;68.80;;;;;;5015607;28;20459;-87
2022/10/06 03:01:14;;;;;;;0.90;0.80;;;24.70;68.60;;;;;;5015649;28;20577;-94
2022/10/06 03:03:42;;;;;;;0.80;0.70;;;24.70;68.70;;;;;;5015576;28;20450;-88
2022/10/06 03:06:21;;;;;;;0.80;0.70;;;24.70;68.60;;;;;;5015691;28;20546;-87
2022/10/06 03:08:48;;;;;;;0.80;0.67;;;24.70;68.60;;;;;;5015612;28;20448;-92
2022/10/06 03:11:15;;;;;;;0.80;0.70;;;24.70;68.60;;;;;;5015288;28;20448;-95
2022/10/06 03:13:42;;;;;;;0.80;0.70;;;24.70;68.70;;;;;;5015603;28;20451;-93
2022/10/06 03:16:15;;;;;;;0.80;0.60;;;24.70;68.60;;;;;;5015928;28;20500;-88
2022/10/06 03:18:44;;;;;;;0.80;0.60;;;24.70;68.60;;;;;;5014916;28;20456;-87
2022/10/06 03:21:13;;;;;;;0.80;0.80;;;24.70;68.60;;;;;;5015207;28;20496;-87
2022/10/06 03:23:40;;;;;;;1.13;0.80;;;24.70;68.60;;;;;;5014908;28;20519;-87
2022/10/06 03:26:07;;;;;;;0.80;0.70;;;24.70;68.60;;;;;;5015175;28;20445;-88
2022/10/06 03:28:34;;;;;;;0.70;0.60;;;24.70;69.50;;;;;;5014975;28;20452;-94
2022/10/06 03:31:02;;;;;;;0.80;0.70;;;24.80;68.70;;;;;;5015323;28;20801;-93
2022/10/06 03:33:30;;;;;;;0.87;0.70;;;24.70;68.50;;;;;;5015019;28;20842;-89
2022/10/06 03:36:00;;;;;;;0.80;0.70;;;24.70;68.50;;;;;;5015119;28;20537;-89
2022/10/06 03:38:30;;;;;;;0.80;0.70;;;24.70;68.50;;;;;;5015929;28;20448;-87
2022/10/06 03:41:05;;;;;;;0.80;0.80;;;24.80;68.70;;;;;;5015058;28;20518;-89
2022/10/06 03:43:32;;;;;;;0.90;0.80;;;24.70;68.50;;;;;;5014686;28;20451;-95
2022/10/06 03:45:59;;;;;;;0.70;0.70;;;24.70;68.60;;;;;;5014692;28;20955;-93
2022/10/06 03:48:26;;;;;;;1.13;0.70;;;24.70;68.50;;;;;;5014645;28;20528;-87
2022/10/06 03:50:57;;;;;;;1.00;0.80;;;24.70;68.50;;;;;;5014763;28;20439;-92
2022/10/06 03:53:26;;;;;;;0.80;0.73;;;24.70;68.50;;;;;;5014844;28;20453;-87
2022/10/06 03:56:07;;;;;;;0.80;0.70;;;24.70;68.50;;;;;;5014550;28;20449;-90
2022/10/06 03:58:36;;;;;;;0.90;0.70;;;24.70;68.50;;;;;;5014466;28;20573;-94
2022/10/06 04:01:04;;;;;;;0.80;0.70;;;24.70;69.30;;;;;;5014540;28;20898;-91
2022/10/06 04:03:32;;;;;;;0.83;0.70;;;24.70;68.50;;;;;;5014412;28;20806;-94
2022/10/06 04:06:00;;;;;;;0.80;0.70;;;24.60;68.40;;;;;;5014366;28;20472;-94
2022/10/06 04:08:28;;;;;;;0.90;0.70;;;24.70;68.50;;;;;;5014329;28;20454;-94
2022/10/06 04:10:55;;;;;;;0.80;0.70;;;24.60;68.30;;;;;;5014598;28;20452;-88
2022/10/06 04:13:25;;;;;;;0.80;0.70;;;24.60;68.30;;;;;;5014281;28;20543;-88
2022/10/06 04:15:52;;;;;;;0.77;0.63;;;24.70;68.50;;;;;;5014253;28;20532;-89
2022/10/06 04:18:19;;;;;;;0.80;0.70;;;24.60;68.40;;;;;;5014299;28;20448;-87
2022/10/06 04:20:45;;;;;;;0.90;0.80;;;24.60;68.30;;;;;;5014193;28;20491;-87
2022/10/06 04:23:12;;;;;;;0.80;0.77;;;24.60;68.30;;;;;;5014161;28;20448;-88
2022/10/06 04:25:39;;;;;;;0.90;0.70;;;24.60;68.30;;;;;;5014312;28;20958;-87
2022/10/06 04:28:06;;;;;;;0.80;0.63;;;24.60;68.30;;;;;;5014409;28;20940;-87
2022/10/06 04:30:34;;;;;;;0.80;0.70;;;24.60;68.20;;;;;;5014317;28;20543;-88
2022/10/06 04:33:01;;;;;;;0.80;0.77;;;24.70;68.30;;;;;;5014266;28;20864;-87
2022/10/06 04:35:28;;;;;;;0.83;0.70;;;24.60;69.10;;;;;;5013957;28;20983;-87
2022/10/06 04:37:56;;;;;;;0.87;0.77;;;24.60;68.20;;;;;;5014186;28;20479;-88
2022/10/06 04:40:23;;;;;;;0.80;0.70;;;24.60;68.20;;;;;;5013970;28;20490;-91
2022/10/06 04:42:50;;;;;;;0.90;0.70;;;24.60;68.20;;;;;;5012942;28;20458;-87
2022/10/06 04:45:19;;;;;;;0.80;0.60;;;24.70;68.30;;;;;;5014235;28;20444;-87
2022/10/06 04:47:48;;;;;;;1.20;0.90;;;24.60;68.10;;;;;;5013719;28;20446;-88
2022/10/06 04:50:15;;;;;;;1.00;0.70;;;24.70;68.30;;;;;;5013913;28;20440;-87
2022/10/06 04:52:42;;;;;;;0.80;0.70;;;24.60;68.10;;;;;;5014095;28;20556;-87
2022/10/06 04:55:10;;;;;;;0.83;0.80;;;24.60;68.10;;;;;;5013957;28;20444;-88
2022/10/06 04:57:37;;;;;;;1.07;0.70;;;24.60;68.10;;;;;;5013909;28;20484;-93
2022/10/06 05:00:24;;;;;;;1.10;0.70;;;24.60;68.10;;;;;;5013603;28;20489;-88
2022/10/06 05:02:55;;;;;;;1.00;0.90;;;24.60;68.10;;;;;;5013787;28;20444;-89
2022/10/06 05:05:22;;;;;;;0.80;0.70;;;24.60;68.10;;;;;;5013535;28;20487;-92
2022/10/06 05:07:48;;;;;;;0.80;0.70;;;24.60;68.10;;;;;;5013905;28;20450;-92
2022/10/06 05:10:16;;;;;;;0.90;0.70;;;24.60;68.00;;;;;;5013837;28;20823;-93
2022/10/06 05:12:43;;;;;;;0.77;0.67;;;24.60;68.00;;;;;;5014254;28;21014;-93
2022/10/06 05:15:10;;;;;;;0.80;0.70;;;24.70;68.20;;;;;;5016940;28;20454;-88
2022/10/06 05:17:37;;;;;;;0.80;0.70;;;24.60;68.00;;;;;;5015051;28;20535;-93
2022/10/06 05:20:09;;;;;;;1.03;0.70;;;24.60;68.00;;;;;;5017069;28;20488;-88
2022/10/06 05:22:37;;;;;;;0.90;0.70;;;24.60;67.90;;;;;;5014208;28;20433;-95
2022/10/06 05:25:04;;;;;;;0.80;0.67;;;24.60;68.00;;;;;;5013495;28;20450;-90
2022/10/06 05:27:31;;;;;;;0.80;0.70;;;24.60;68.00;;;;;;5013991;28;20420;-93
2022/10/06 05:29:58;;;;;;;0.83;0.70;;;24.60;68.00;;;;;;5013357;28;20519;-95
2022/10/06 05:32:25;;;;;;;0.80;0.70;;;24.60;67.90;;;;;;5004762;28;20441;-88
2022/10/06 05:34:53;;;;;;;0.90;0.80;;;24.60;67.90;;;;;;5002427;28;20499;-94
2022/10/06 05:37:21;;;;;;;0.80;0.70;;;24.60;67.90;;;;;;5002270;28;20437;-89
2022/10/06 05:39:48;;;;;;;0.80;0.70;;;24.70;68.00;;;;;;5005711;28;20439;-89
2022/10/06 05:42:15;;;;;;;0.80;0.70;;;24.60;67.80;;;;;;5007784;28;20436;-89
2022/10/06 05:44:41;;;;;;;1.00;0.70;;;24.80;68.00;;;;;;5013135;28;20459;-94
2022/10/06 05:47:08;;;;;;;0.90;0.80;;;24.60;67.80;;;;;;5013648;28;20952;-94
2022/10/06 05:49:35;;;;;;;0.73;0.60;;;24.60;67.80;;;;;;5013378;28;20453;-93
2022/10/06 05:52:02;;;;;;;1.03;0.73;;;24.60;67.80;;;;;;5013362;28;20887;-93
2022/10/06 05:54:31;;;;;;;0.90;0.70;;;24.60;67.80;;;;;;5016428;28;20542;-88
2022/10/06 05:56:57;;;;;;;0.70;0.60;;;24.60;68.70;;;;;;5016604;28;20499;-88
2022/10/06 05:59:24;;;;;;;0.90;0.80;;;24.60;67.80;;;;;;5016873;28;20435;-92
2022/10/06 06:01:51;;;;;;;0.90;0.70;;;24.60;67.80;;;;;;5016621;28;20846;-93
2022/10/06 06:04:19;;;;;;;0.70;0.53;;;24.60;67.80;;;;;;5016558;28;21013;-94
2022/10/06 06:06:47;;;;;;;0.80;0.80;;;24.60;67.80;;;;;;5016911;28;20940;-88
2022/10/06 06:09:16;;;;;;;1.43;0.70;;;24.60;67.80;;;;;;5016792;28;20467;-93
2022/10/06 06:11:45;;;;;;;0.90;0.80;;;24.60;67.80;;;;;;5016686;28;20566;-94
2022/10/06 06:14:13;;;;;;;0.90;0.80;;;24.60;67.70;;;;;;5017059;28;20440;-93
2022/10/06 06:16:41;;;;;;;0.90;0.80;;;24.50;67.70;;;;;;5016424;28;20785;-88
2022/10/06 06:19:10;;;;;;;0.93;0.83;;;24.50;68.60;;;;;;5016526;28;20481;-93
2022/10/06 06:21:36;;;;;;;0.90;0.70;;;24.50;67.60;;;;;;5016478;28;20538;-87
2022/10/06 06:24:04;;;;;;;1.00;0.80;;;24.50;67.70;;;;;;5016517;28;20448;-89
2022/10/06 06:26:32;;;;;;;1.00;0.70;;;24.50;67.70;;;;;;5016799;28;20446;-87
2022/10/06 06:29:03;;;;;;;1.13;0.93;;;24.50;67.80;;;;;;5016418;28;20444;-88
2022/10/06 06:31:32;;;;;;;0.80;0.80;;;24.70;68.10;;;;;;5016434;28;20471;-89
2022/10/06 06:34:01;;;;;;;1.43;1.07;;;24.50;68.00;;;;;;5016066;28;20441;-88
2022/10/06 06:36:34;;;;;;;1.00;0.70;;;24.50;68.10;;;;;;5016396;28;20486;-88
2022/10/06 06:39:02;;;;;;;1.93;0.70;;;24.50;68.20;;;;;;5016241;28;20793;-88
2022/10/06 06:41:32;;;;;;;0.90;0.80;;;24.50;68.30;;;;;;5015892;28;20481;-93
2022/10/06 06:44:00;;;;;;;0.80;0.70;;;24.60;68.40;;;;;;5016242;28;20530;-89
2022/10/06 06:46:30;;;;;;;0.90;0.80;;;24.60;68.40;;;;;;5015635;28;20449;-91
2022/10/06 06:49:03;;;;;;;1.10;0.80;;;24.60;68.50;;;;;;5016027;28;20527;-88
2022/10/06 06:51:30;;;;;;;1.10;1.00;;;24.60;68.40;;;;;;5016560;28;20444;-90
2022/10/06 06:53:58;;;;;;;0.80;0.70;;;24.80;68.50;;;;;;5015980;28;20791;-89
2022/10/06 06:56:25;;;;;;;1.70;0.80;;;24.60;67.40;;;;;;5015766;28;20863;-88
2022/10/06 06:58:51;;;;;;;2.03;0.90;;;24.60;67.20;;;;;;5015607;28;20957;-89
2022/10/06 07:01:21;;;;;;;1.27;0.93;;;24.60;67.60;;;;;;5015591;28;20496;-88
2022/10/06 07:03:54;;;;;;;4.43;1.07;;;24.70;68.10;;;;;;5015489;28;20854;-88
2022/10/06 07:06:21;;;;;;;1.50;0.90;;;24.70;68.20;;;;;;5014699;28;20532;-88
2022/10/06 07:08:49;;;;;;;1.70;1.20;;;24.70;68.20;;;;;;5015419;28;20949;-88
2022/10/06 07:11:18;;;;;;;2.03;0.80;;;24.80;68.30;;;;;;5014880;28;20478;-89
2022/10/06 07:13:46;;;;;;;2.30;0.90;;;24.80;68.20;;;;;;5015194;28;20464;-89
2022/10/06 07:27:19;;;;;;;2.07;0.90;;;24.80;67.70;;;;;;5014977;28;20440;-85
2022/10/06 07:29:47;;;;;;;1.73;1.03;;;24.70;67.10;;;;;;5014618;28;20440;-87
2022/10/06 07:32:13;;;;;;;1.17;0.93;;;24.70;66.70;;;;;;5014880;28;20493;-87
2022/10/06 07:34:42;;;;;;;5.43;1.40;;;24.70;66.70;;;;;;5005988;28;20537;-86
2022/10/06 07:37:08;;;;;;;4.00;1.13;;;24.70;66.60;;;;;;4994877;28;20444;-85
2022/10/06 07:39:35;;;;;;;10.73;1.13;;;24.70;66.60;;;;;;4994600;28;20444;-90
2022/10/06 07:42:06;;;;;;;1.20;1.10;;;24.70;66.90;;;;;;4995059;28;20489;-90
2022/10/06 07:44:33;;;;;;;1.00;0.90;;;24.70;67.10;;;;;;4995625;28;20497;-89
